Time;durP1;ratioP1;P1;durP2;ratioP2;P2;SDS_P1;SDS_P2;PMS_P1;PMS_P2;Temp;Humidity;BMP_temperature;BMP_pressure;BME280_temperature;BME280_humidity;BME280_pressure;Samples;Min_cycle;Max_cycle;Signal;HPM_P1;HPM_P2
2022/06/27 00:01:32;;;;;;;12.20;1.60;;;;;;;10.98;79.83;99798.47;5062223;28;20044;-75
2022/06/27 00:03:57;;;;;;;8.80;1.50;;;;;;;10.98;79.63;99809.06;5050139;28;20029;-74
2022/06/27 00:06:23;;;;;;;16.88;1.75;;;;;;;10.96;79.50;99819.00;5049498;28;20450;-81
2022/06/27 00:08:50;;;;;;;8.20;1.27;;;;;;;10.91;79.77;99815.00;5049819;28;20024;-81
2022/06/27 00:11:17;;;;;;;12.48;2.00;;;;;;;10.91;79.35;99820.28;5049062;28;20087;-81
2022/06/27 00:13:43;;;;;;;10.43;1.25;;;;;;;10.91;79.63;99820.28;5051474;28;20040;-81
2022/06/27 00:16:09;;;;;;;12.05;1.90;;;;;;;10.90;79.37;99817.81;5036018;28;20112;-81
2022/06/27 00:18:35;;;;;;;9.05;1.20;;;;;;;10.84;79.36;99819.28;5049452;28;20025;-81
2022/06/27 00:21:01;;;;;;;11.63;1.33;;;;;;;10.80;79.30;99820.56;5050140;28;20036;-81
2022/06/27 00:23:27;;;;;;;10.07;1.35;;;;;;;10.78;79.46;99820.75;5063387;28;20125;-81
2022/06/27 00:25:53;;;;;;;11.15;1.52;;;;;;;10.78;79.73;99812.81;5049020;28;20033;-81
2022/06/27 00:28:19;;;;;;;5.20;1.33;;;;;;;10.76;79.63;99816.63;5050299;28;20033;-81
2022/06/27 00:30:45;;;;;;;10.23;1.85;;;;;;;10.75;79.49;99818.41;5048579;28;20108;-81
2022/06/27 00:33:10;;;;;;;14.32;1.40;;;;;;;10.74;79.57;99821.22;5067177;28;20115;-81
2022/06/27 00:35:36;;;;;;;13.85;1.83;;;;;;;10.72;79.65;99818.75;5050289;28;20029;-81
2022/06/27 00:38:02;;;;;;;12.30;2.05;;;;;;;10.68;79.95;99825.34;5030307;28;20045;-81
2022/06/27 00:40:29;;;;;;;13.60;1.85;;;;;;;10.65;79.84;99823.84;5037845;28;20538;-81
2022/06/27 00:42:55;;;;;;;12.18;1.77;;;;;;;10.63;80.01;99830.28;5072111;28;20032;-82
2022/06/27 00:45:20;;;;;;;15.30;2.33;;;;;;;10.62;80.03;99826.81;5063789;28;20040;-82
2022/06/27 00:47:46;;;;;;;16.73;2.20;;;;;;;10.63;79.94;99832.91;5053606;28;20037;-81
2022/06/27 00:50:12;;;;;;;16.08;1.98;;;;;;;10.61;80.10;99834.88;5052092;28;20239;-81
2022/06/27 00:52:38;;;;;;;11.23;1.75;;;;;;;10.54;79.80;99840.81;5057801;28;20366;-81
2022/06/27 00:55:05;;;;;;;12.88;2.38;;;;;;;10.53;80.46;99847.09;5058059;28;20037;-82
2022/06/27 00:57:32;;;;;;;16.83;2.35;;;;;;;10.48;80.20;99840.66;5050650;28;20028;-81
2022/06/27 00:59:58;;;;;;;14.57;2.15;;;;;;;10.45;80.38;99840.94;5063516;28;20033;-82
2022/06/27 01:02:24;;;;;;;17.33;1.90;;;;;;;10.36;80.61;99846.16;5066066;28;20063;-74
2022/06/27 01:04:50;;;;;;;17.55;2.97;;;;;;;10.30;80.59;99850.25;5069941;28;20503;-75
2022/06/27 01:07:16;;;;;;;15.05;2.55;;;;;;;10.25;81.06;99849.91;5036148;28;20127;-81
2022/06/27 01:09:43;;;;;;;18.17;2.72;;;;;;;10.24;80.97;99850.06;5033938;28;20392;-81
2022/06/27 01:12:10;;;;;;;19.55;2.20;;;;;;;10.16;81.08;99850.84;5032713;28;20037;-81
2022/06/27 01:14:36;;;;;;;16.48;2.83;;;;;;;10.14;81.37;99850.19;5051218;28;20044;-82
2022/06/27 01:17:03;;;;;;;15.57;2.30;;;;;;;10.12;80.99;99849.50;5051315;28;20089;-81
2022/06/27 01:19:29;;;;;;;14.68;2.10;;;;;;;10.05;81.24;99850.13;5041528;28;20043;-82
2022/06/27 01:21:57;;;;;;;16.17;3.00;;;;;;;10.03;81.46;99851.28;5050944;28;20077;-81
2022/06/27 01:24:27;;;;;;;13.38;2.50;;;;;;;10.00;81.34;99849.75;5053517;28;20473;-81
2022/06/27 01:26:54;;;;;;;12.93;1.85;;;;;;;9.97;81.61;99855.34;5037793;28;20111;-82
2022/06/27 01:29:20;;;;;;;11.63;1.63;;;;;;;9.97;81.57;99855.34;5052867;28;20032;-81
2022/06/27 01:31:47;;;;;;;16.33;2.13;;;;;;;9.99;81.56;99853.38;5052916;28;20040;-81
2022/06/27 01:34:14;;;;;;;12.68;2.05;;;;;;;9.98;81.34;99857.03;5053167;28;20036;-81
2022/06/27 01:36:42;;;;;;;15.98;2.15;;;;;;;10.00;81.08;99851.59;5028615;28;20063;-81
2022/06/27 01:39:17;;;;;;;12.60;2.13;;;;;;;10.03;81.22;99854.72;5045744;28;20101;-82
2022/06/27 01:41:49;;;;;;;12.68;2.20;;;;;;;10.06;80.90;99853.59;5029657;28;20040;-81
2022/06/27 01:44:15;;;;;;;17.15;2.10;;;;;;;10.09;80.67;99857.72;5050823;28;20039;-81
2022/06/27 01:47:00;;;;;;;14.57;1.85;;;;;;;10.11;80.25;99850.50;5064791;28;20068;-82
2022/06/27 01:49:30;;;;;;;13.85;1.90;;;;;;;10.12;80.29;99863.53;5049381;28;20079;-81
2022/06/27 01:51:58;;;;;;;9.45;1.52;;;;;;;10.12;80.03;99862.69;5063850;28;20032;-81
2022/06/27 01:54:24;;;;;;;11.45;1.90;;;;;;;10.09;79.86;99855.09;5036878;28;20025;-82
2022/06/27 01:56:53;;;;;;;21.35;3.45;;;;;;;10.02;79.94;99868.06;5036613;28;20033;-81
2022/06/27 01:59:25;;;;;;;14.75;2.17;;;;;;;10.01;80.08;99862.00;5062312;28;20040;-81
2022/06/27 02:01:55;;;;;;;;;;;;;;;9.87;79.90;99865.19;5049407;28;20036;-82
2022/06/27 02:04:21;;;;;;;17.40;2.50;;;;;;;9.87;80.00;99859.91;5051793;28;20315;-81
2022/06/27 02:06:47;;;;;;;14.95;2.08;;;;;;;9.84;80.19;99865.50;5066235;28;20032;-81
2022/06/27 02:09:15;;;;;;;13.75;2.42;;;;;;;9.78;79.93;99877.47;5062033;28;20032;-81
2022/06/27 02:11:43;;;;;;;7.55;1.48;;;;;;;9.68;80.07;99870.47;5065484;28;20107;-81
2022/06/27 02:14:13;;;;;;;11.40;1.70;;;;;;;9.61;80.25;99874.72;5050656;28;20036;-81
2022/06/27 02:16:42;;;;;;;10.68;1.60;;;;;;;9.55;80.67;99878.81;5046371;28;20037;-82
2022/06/27 02:19:11;;;;;;;17.52;2.75;;;;;;;9.52;80.77;99886.19;5066416;28;20120;-82
2022/06/27 02:21:38;;;;;;;8.60;1.40;;;;;;;9.52;80.70;99880.91;5066163;28;20082;-82
2022/06/27 02:24:07;;;;;;;10.95;2.47;;;;;;;9.54;80.57;99889.47;5062420;28;20550;-82
2022/06/27 02:26:34;;;;;;;6.43;1.83;;;;;;;9.51;80.64;99890.63;5050576;28;20135;-82
2022/06/27 02:29:00;;;;;;;12.93;1.80;;;;;;;9.44;80.56;99886.94;5051125;28;20028;-82
2022/06/27 02:31:29;;;;;;;15.00;2.30;;;;;;;9.43;80.66;99898.47;5049500;28;20365;-81
2022/06/27 02:33:57;;;;;;;6.28;1.40;;;;;;;9.45;80.54;99899.16;5066488;28;20032;-81
2022/06/27 02:36:39;;;;;;;12.00;1.70;;;;;;;9.40;80.44;99906.66;5051627;28;20025;-81
2022/06/27 02:39:06;;;;;;;11.30;1.88;;;;;;;9.38;80.63;99903.38;5071336;28;20044;-82
2022/06/27 02:41:33;;;;;;;10.38;1.80;;;;;;;9.34;80.78;99899.34;5062139;28;20032;-81
2022/06/27 02:44:13;;;;;;;11.50;1.65;;;;;;;9.35;80.91;99898.41;5068575;28;20105;-82
2022/06/27 02:46:40;;;;;;;12.85;1.80;;;;;;;9.35;80.94;99903.69;5050682;28;20417;-81
2022/06/27 02:49:07;;;;;;;12.00;1.80;;;;;;;9.36;80.77;99900.06;5068186;28;20032;-82
2022/06/27 02:51:40;;;;;;;10.52;1.63;;;;;;;9.34;80.72;99900.19;5070958;28;20066;-82
2022/06/27 02:54:45;;;;;;;13.57;1.60;;;;;;;9.33;80.46;99900.34;5045713;28;20037;-81
2022/06/27 02:57:49;;;;;;;9.30;1.30;;;;;;;9.34;80.39;99902.84;5078288;28;20060;-81
2022/06/27 03:00:17;;;;;;;10.18;1.50;;;;;;;9.38;80.53;99911.28;5068287;28;20040;-81
2022/06/27 03:02:44;;;;;;;13.40;1.50;;;;;;;9.39;80.18;99900.59;5034620;28;20546;-81
2022/06/27 03:05:28;;;;;;;9.15;1.50;;;;;;;9.42;80.09;99910.00;5072794;28;20037;-81
2022/06/27 03:07:55;;;;;;;13.23;1.35;;;;;;;9.48;79.83;99901.47;5073507;28;20032;-81
2022/06/27 03:10:22;;;;;;;12.07;1.63;;;;;;;9.52;79.73;99917.84;5069683;28;20503;-81
2022/06/27 03:12:49;;;;;;;11.73;2.00;;;;;;;9.53;79.68;99915.06;5072743;28;20111;-81
2022/06/27 03:15:15;;;;;;;7.43;1.25;;;;;;;9.54;79.56;99910.59;5061873;28;20043;-81
2022/06/27 03:17:43;;;;;;;14.32;1.92;;;;;;;9.51;79.54;99909.09;5045221;28;20029;-81
2022/06/27 03:20:27;;;;;;;6.35;2.30;;;;;;;9.51;79.17;99918.81;5073965;28;20101;-81
2022/06/27 03:23:15;;;;;;;13.70;1.42;;;;;;;9.46;79.59;99923.72;5026894;28;20040;-81
2022/06/27 03:25:48;;;;;;;9.15;1.25;;;;;;;9.41;79.94;99921.53;5043403;28;20043;-81
2022/06/27 03:28:14;;;;;;;7.30;1.38;;;;;;;9.37;79.93;99917.53;5036595;28;20032;-81
2022/06/27 03:30:41;;;;;;;9.43;1.60;;;;;;;9.36;80.45;99919.34;5070583;28;20040;-82
2022/06/27 03:33:07;;;;;;;10.32;1.58;;;;;;;9.39;80.29;99918.22;5040140;28;20066;-82
2022/06/27 03:35:52;;;;;;;9.48;1.27;;;;;;;9.38;80.29;99912.09;5049249;28;20056;-82
2022/06/27 03:38:18;;;;;;;12.32;1.77;;;;;;;9.40;80.25;99915.44;5060702;28;20076;-81
2022/06/27 03:40:45;;;;;;;11.85;2.08;;;;;;;9.39;80.49;99926.13;5054354;28;20036;-81
2022/06/27 03:43:11;;;;;;;6.53;1.23;;;;;;;9.39;80.36;99919.06;5030169;28;20131;-81
2022/06/27 03:45:36;;;;;;;6.25;1.65;;;;;;;9.43;80.48;99919.56;5048615;28;20040;-81
2022/06/27 03:48:03;;;;;;;8.23;1.20;;;;;;;9.44;80.26;99931.78;5051330;28;20048;-82
2022/06/27 03:50:33;;;;;;;12.50;1.30;;;;;;;9.44;80.29;99931.78;5052116;28;20033;-81
2022/06/27 03:53:00;;;;;;;9.65;1.65;;;;;;;9.48;80.38;99929.66;4972457;28;20074;-81
2022/06/27 03:55:26;;;;;;;9.75;1.40;;;;;;;9.54;80.36;99932.53;5075255;28;20036;-82
2022/06/27 03:57:57;;;;;;;11.65;1.73;;;;;;;9.58;79.85;99940.16;5055655;28;20029;-81
2022/06/27 04:00:32;;;;;;;8.95;2.00;;;;;;;9.61;79.80;99940.69;5067446;28;20070;-82
2022/06/27 04:03:01;;;;;;;11.50;1.50;;;;;;;9.64;79.77;99934.28;5050843;28;20385;-81
2022/06/27 04:05:37;;;;;;;13.13;1.38;;;;;;;9.65;79.96;99944.69;5054089;28;20028;-82
2022/06/27 04:08:03;;;;;;;13.05;1.30;;;;;;;9.68;79.77;99939.09;5066740;28;20074;-81
2022/06/27 04:10:33;;;;;;;8.50;1.38;;;;;;;9.72;79.90;99949.34;5055016;28;20115;-81
2022/06/27 04:12:59;;;;;;;9.82;1.20;;;;;;;9.78;79.86;99954.03;5044458;28;20036;-81
2022/06/27 04:15:38;;;;;;;12.05;1.48;;;;;;;9.81;79.78;99951.06;5068709;28;20025;-81
2022/06/27 04:18:22;;;;;;;12.32;1.20;;;;;;;9.83;79.75;99954.41;5056154;28;20103;-81
2022/06/27 04:21:08;;;;;;;6.05;0.95;;;;;;;9.85;79.81;99956.88;5035978;28;20531;-82
2022/06/27 04:23:44;;;;;;;12.52;1.60;;;;;;;9.86;79.92;99964.66;5053771;28;20032;-81
2022/06/27 04:26:26;;;;;;;5.68;1.30;;;;;;;9.88;79.53;99964.50;5044262;28;20047;-81
2022/06/27 04:28:53;;;;;;;5.60;1.27;;;;;;;9.83;79.83;99970.25;5051737;28;20115;-81
2022/06/27 04:31:19;;;;;;;6.90;1.42;;;;;;;9.80;80.09;99973.19;5050110;28;20427;-81
2022/06/27 04:33:46;;;;;;;8.88;1.58;;;;;;;9.79;80.13;99979.44;5046202;28;20029;-81
2022/06/27 04:36:12;;;;;;;12.50;1.67;;;;;;;9.75;80.24;99973.63;5053859;28;20032;-81
2022/06/27 04:38:38;;;;;;;12.43;1.88;;;;;;;9.78;80.47;99980.41;5039223;28;20489;-81
2022/06/27 04:41:13;;;;;;;7.38;1.10;;;;;;;9.78;80.39;99981.25;5069747;28;20129;-81
2022/06/27 04:43:45;;;;;;;9.57;1.52;;;;;;;9.75;80.09;99984.19;5048228;28;20051;-80
2022/06/27 04:46:11;;;;;;;12.52;1.60;;;;;;;9.71;80.07;99984.66;5037013;28;20040;-81
2022/06/27 04:48:58;;;;;;;7.68;0.90;;;;;;;9.66;80.25;99974.53;5023605;28;20048;-81
2022/06/27 04:51:24;;;;;;;7.85;1.73;;;;;;;9.64;80.06;99973.84;5066679;28;20029;-81
2022/06/27 04:53:51;;;;;;;7.72;1.65;;;;;;;9.63;80.13;99983.59;5049142;28;20024;-81
2022/06/27 04:56:17;;;;;;;6.78;1.08;;;;;;;9.61;80.04;99990.81;5048064;28;20033;-81
2022/06/27 04:58:43;;;;;;;5.57;1.35;;;;;;;9.56;79.98;99982.53;5048462;28;20119;-82
2022/06/27 05:01:10;;;;;;;16.05;1.80;;;;;;;9.52;80.25;99994.34;5066508;28;20400;-82
2022/06/27 05:03:55;;;;;;;9.93;1.38;;;;;;;9.50;80.38;99999.78;5048332;28;20052;-81
2022/06/27 05:06:28;;;;;;;7.45;1.48;;;;;;;9.48;80.36;99999.09;4983173;28;20028;-81
2022/06/27 05:08:54;;;;;;;7.25;1.05;;;;;;;9.43;80.39;100002.19;5053772;28;20043;-81
2022/06/27 05:11:20;;;;;;;7.88;0.85;;;;;;;9.38;80.48;99998.34;5053328;28;20454;-81
2022/06/27 05:13:46;;;;;;;7.20;0.98;;;;;;;9.35;80.49;100004.72;5069811;28;20032;-81
2022/06/27 05:16:38;;;;;;;4.45;1.05;;;;;;;9.35;80.56;100001.25;5064603;28;20497;-81
2022/06/27 05:19:04;;;;;;;7.35;1.23;;;;;;;9.33;80.83;100004.06;5053596;28;20037;-81
2022/06/27 05:21:30;;;;;;;8.85;1.73;;;;;;;9.31;80.88;100011.28;5051749;28;20470;-81
2022/06/27 05:23:56;;;;;;;10.00;1.63;;;;;;;9.28;81.05;100009.78;5039306;28;20411;-81
2022/06/27 05:26:22;;;;;;;10.57;1.38;;;;;;;9.28;81.21;100011.56;5052558;28;20070;-82
2022/06/27 05:28:49;;;;;;;9.45;1.42;;;;;;;9.27;81.53;100004.63;5067888;28;20366;-81
2022/06/27 05:31:15;;;;;;;7.05;1.17;;;;;;;9.30;81.55;100023.63;5049762;28;20051;-80
2022/06/27 05:33:42;;;;;;;10.45;1.92;;;;;;;9.34;82.28;100018.88;5063881;28;20637;-81
2022/06/27 05:36:10;;;;;;;7.82;1.63;;;;;;;9.38;82.34;100024.72;5052833;28;20050;-80
2022/06/27 05:38:37;;;;;;;9.30;1.60;;;;;;;9.50;82.56;100034.09;5055158;28;20084;-81
2022/06/27 05:41:02;;;;;;;5.53;0.85;;;;;;;9.59;82.51;100031.53;5044511;28;20389;-81
2022/06/27 05:43:29;;;;;;;7.13;1.40;;;;;;;9.67;82.37;100026.31;5058647;28;20028;-81
2022/06/27 05:45:55;;;;;;;9.95;1.35;;;;;;;9.72;82.11;100028.53;5048744;28;20036;-81
2022/06/27 05:48:27;;;;;;;8.13;1.13;;;;;;;9.72;82.30;100028.53;5053790;28;20370;-81
2022/06/27 05:51:13;;;;;;;9.32;1.65;;;;;;;9.71;82.45;100033.00;5070148;28;20036;-80
2022/06/27 05:53:43;;;;;;;10.30;1.50;;;;;;;9.70;82.42;100033.13;5052917;28;20827;-81
2022/06/27 05:56:10;;;;;;;6.13;1.35;;;;;;;9.67;82.05;100027.16;5065710;28;20028;-81
2022/06/27 05:58:37;;;;;;;8.95;1.23;;;;;;;9.66;82.37;100029.97;5063438;28;20036;-81
2022/06/27 06:01:04;;;;;;;12.43;2.00;;;;;;;9.66;82.40;100029.97;5065589;28;20036;-81
2022/06/27 06:03:31;;;;;;;10.25;1.30;;;;;;;9.64;82.58;100032.75;5052639;28;20111;-81
2022/06/27 06:05:57;;;;;;;8.63;1.38;;;;;;;9.66;82.40;100035.22;5069063;28;20040;-82
2022/06/27 06:08:25;;;;;;;11.65;2.40;;;;;;;9.63;82.49;100043.44;5048145;28;20086;-81
2022/06/27 06:10:51;;;;;;;7.00;1.17;;;;;;;9.63;82.74;100043.44;5069837;28;20108;-81
2022/06/27 06:13:19;;;;;;;5.75;1.08;;;;;;;9.65;82.75;100050.22;5079443;28;20112;-81
2022/06/27 06:15:45;;;;;;;7.43;1.33;;;;;;;9.67;82.60;100052.72;5070487;28;20029;-81
2022/06/27 06:18:12;;;;;;;7.15;1.30;;;;;;;9.67;82.70;100056.19;5064458;28;20039;-81
2022/06/27 06:20:40;;;;;;;6.78;1.50;;;;;;;9.69;83.02;100061.31;5076194;28;20032;-81
2022/06/27 06:23:05;;;;;;;9.80;1.70;;;;;;;9.70;83.01;100052.41;5053931;28;20491;-81
2022/06/27 06:25:31;;;;;;;12.93;2.28;;;;;;;9.73;83.28;100051.31;5070171;28;20385;-81
2022/06/27 06:28:02;;;;;;;12.80;1.33;;;;;;;9.78;83.31;100057.78;5074336;28;20043;-81
2022/06/27 06:30:30;;;;;;;9.07;1.45;;;;;;;9.83;83.30;100059.97;5049194;28;20096;-81
2022/06/27 06:33:02;;;;;;;8.30;1.25;;;;;;;9.89;83.33;100064.66;5072239;28;20035;-81
2022/06/27 06:35:28;;;;;;;8.82;1.60;;;;;;;9.97;82.97;100071.84;5055614;28;20098;-81
2022/06/27 06:37:54;;;;;;;8.95;1.27;;;;;;;10.04;83.27;100074.72;5056358;28;20437;-81
2022/06/27 06:40:20;;;;;;;9.07;1.30;;;;;;;10.09;82.83;100068.97;5056361;28;20127;-81
2022/06/27 06:42:46;;;;;;;9.57;1.40;;;;;;;10.17;82.69;100077.84;5039893;28;20438;-81
2022/06/27 06:45:31;;;;;;;9.48;0.90;;;;;;;10.23;82.71;100083.47;5040361;28;20036;-81
2022/06/27 06:48:08;;;;;;;6.63;1.23;;;;;;;10.28;82.71;100086.50;5062440;28;20394;-81
2022/06/27 06:50:35;;;;;;;8.18;1.70;;;;;;;10.36;82.71;100088.38;5043496;28;20036;-81
2022/06/27 06:53:01;;;;;;;10.15;1.30;;;;;;;10.41;82.34;100084.31;5063912;28;20035;-81
2022/06/27 06:55:27;;;;;;;9.32;1.17;;;;;;;10.51;82.30;100084.25;5065875;28;20032;-81
2022/06/27 06:57:56;;;;;;;6.53;1.10;;;;;;;10.61;81.97;100096.53;5042673;28;20060;-81
2022/06/27 07:00:22;;;;;;;8.50;1.17;;;;;;;10.64;81.60;100097.06;5054897;28;20033;-81
2022/06/27 07:02:48;;;;;;;9.52;1.52;;;;;;;10.70;81.88;100087.72;5067733;28;20025;-81
2022/06/27 07:05:16;;;;;;;9.57;1.30;;;;;;;10.76;81.51;100099.47;5072712;28;20044;-81
2022/06/27 07:07:42;;;;;;;9.50;1.15;;;;;;;10.82;81.28;100092.72;5059200;28;20025;-81
2022/06/27 07:10:11;;;;;;;10.93;1.65;;;;;;;10.89;80.44;100099.06;5067303;28;20033;-81
2022/06/27 07:12:38;;;;;;;7.03;1.55;;;;;;;10.98;79.82;100092.84;5041418;28;20060;-81
2022/06/27 07:15:09;;;;;;;5.30;1.30;;;;;;;11.14;79.74;100094.75;5072260;28;20032;-81
2022/06/27 07:17:43;;;;;;;6.88;0.93;;;;;;;11.41;79.73;100098.19;5059547;28;20032;-81
2022/06/27 07:20:10;;;;;;;6.60;1.02;;;;;;;11.47;78.24;100098.53;5070785;28;20481;-81
2022/06/27 07:22:36;;;;;;;10.32;1.13;;;;;;;11.50;77.47;100098.22;5072398;28;20082;-81
2022/06/27 07:25:02;;;;;;;5.97;0.82;;;;;;;11.52;77.05;100106.84;5054975;28;20484;-81
2022/06/27 07:27:28;;;;;;;4.32;1.33;;;;;;;11.61;76.08;100108.53;5054949;28;20039;-81
2022/06/27 07:29:54;;;;;;;8.45;1.10;;;;;;;11.68;75.44;100107.88;5071701;28;20032;-81
2022/06/27 07:32:20;;;;;;;9.85;1.15;;;;;;;11.71;75.13;100111.03;5068835;28;20028;-81
2022/06/27 07:34:47;;;;;;;5.80;1.33;;;;;;;11.86;74.77;100115.72;5068816;28;20027;-80
2022/06/27 07:37:13;;;;;;;7.57;0.93;;;;;;;12.11;74.56;100118.47;5055271;28;20037;-81
2022/06/27 07:39:40;;;;;;;7.80;1.20;;;;;;;12.31;74.18;100128.78;5071272;28;20071;-81
2022/06/27 07:42:06;;;;;;;7.28;1.35;;;;;;;12.48;73.88;100122.50;5053855;28;20040;-81
2022/06/27 07:44:34;;;;;;;10.48;1.30;;;;;;;12.74;72.80;100121.50;5063147;28;20028;-81
2022/06/27 07:47:03;;;;;;;8.75;1.38;;;;;;;12.83;71.65;100129.44;5050054;28;20040;-81
2022/06/27 07:49:30;;;;;;;8.02;1.52;;;;;;;12.90;71.62;100127.78;5053771;28;20032;-80
2022/06/27 07:51:57;;;;;;;8.68;1.50;;;;;;;12.87;70.89;100126.28;5076624;28;20489;-81
2022/06/27 07:54:24;;;;;;;16.13;1.25;;;;;;;12.80;70.76;100127.97;5058864;28;20052;-80
2022/06/27 07:56:51;;;;;;;12.55;1.05;;;;;;;12.67;70.78;100133.78;5075079;28;20081;-81
2022/06/27 07:59:17;;;;;;;10.52;2.15;;;;;;;12.55;70.63;100133.25;5071701;28;20039;-80
2022/06/27 08:01:44;;;;;;;10.13;1.98;;;;;;;12.50;71.19;100140.91;5052430;28;20062;-80
2022/06/27 08:04:12;;;;;;;10.32;1.70;;;;;;;12.53;70.96;100133.41;5044970;28;20089;-81
2022/06/27 08:06:38;;;;;;;8.75;1.25;;;;;;;12.55;70.78;100132.44;5052890;28;20478;-80
2022/06/27 08:09:06;;;;;;;9.23;1.33;;;;;;;12.61;70.84;100134.44;5054584;28;20114;-81
2022/06/27 08:11:35;;;;;;;7.60;1.30;;;;;;;12.61;70.45;100135.25;5052215;28;20048;-81
2022/06/27 08:14:05;;;;;;;7.43;1.08;;;;;;;12.55;69.96;100143.06;5069510;28;20039;-81
2022/06/27 08:16:33;;;;;;;11.57;2.63;;;;;;;12.63;70.36;100141.22;5044712;28;20503;-74
2022/06/27 08:19:01;;;;;;;5.55;1.08;;;;;;;12.80;69.69;100151.00;5055993;28;20097;-74
2022/06/27 08:21:28;;;;;;;8.63;1.55;;;;;;;12.86;69.18;100142.38;5068524;28;20429;-81
2022/06/27 08:23:59;;;;;;;6.15;1.02;;;;;;;13.06;68.85;100145.50;5053056;28;20045;-81
2022/06/27 08:26:26;;;;;;;8.88;1.10;;;;;;;13.24;68.89;100145.31;5043358;28;20040;-80
2022/06/27 08:28:52;;;;;;;6.93;1.08;;;;;;;13.31;68.35;100149.94;5039212;28;20086;-81
2022/06/27 08:31:19;;;;;;;8.88;1.10;;;;;;;13.38;68.16;100148.25;5054194;28;20025;-80
2022/06/27 08:33:47;;;;;;;6.70;0.98;;;;;;;13.55;68.02;100145.59;5069796;28;20058;-81
2022/06/27 08:36:15;;;;;;;9.07;1.05;;;;;;;13.62;67.42;100150.03;5046535;28;20025;-74
2022/06/27 08:38:42;;;;;;;5.40;0.80;;;;;;;13.51;66.15;100153.91;5037430;28;20137;-73
2022/06/27 08:41:12;;;;;;;8.10;1.20;;;;;;;13.38;65.82;100153.56;5070862;28;20489;-81
2022/06/27 08:43:40;;;;;;;12.45;1.70;;;;;;;13.33;65.91;100151.41;5071283;28;20029;-80
2022/06/27 08:46:07;;;;;;;8.30;1.20;;;;;;;13.41;66.17;100145.25;5071272;28;20032;-80
2022/06/27 08:48:36;;;;;;;7.18;1.25;;;;;;;13.51;65.85;100148.59;5053055;28;20473;-81
2022/06/27 08:51:06;;;;;;;8.65;1.20;;;;;;;13.54;65.34;100150.06;5071816;28;20382;-81
2022/06/27 08:53:33;;;;;;;8.15;1.17;;;;;;;13.56;64.93;100149.88;5072748;28;20032;-80
2022/06/27 08:56:00;;;;;;;11.45;1.27;;;;;;;13.52;65.19;100152.88;5071513;28;20076;-80
2022/06/27 08:58:28;;;;;;;8.60;1.58;;;;;;;13.46;64.70;100158.00;5070836;28;20020;-80
2022/06/27 09:00:54;;;;;;;6.32;0.98;;;;;;;13.35;65.15;100157.41;5006178;28;20032;-83
2022/06/27 09:03:21;;;;;;;9.93;1.58;;;;;;;13.33;65.23;100153.25;5072501;28;20063;-80
2022/06/27 09:05:58;;;;;;;7.78;1.25;;;;;;;13.28;64.81;100159.88;5071809;28;20107;-80
2022/06/27 09:08:28;;;;;;;7.47;1.48;;;;;;;13.30;65.34;100159.72;5070466;28;20055;-80
2022/06/27 09:10:56;;;;;;;12.73;1.75;;;;;;;13.25;65.44;100164.72;5071300;28;20484;-74
2022/06/27 09:13:23;;;;;;;10.57;1.58;;;;;;;13.15;65.37;100162.25;5067796;28;20033;-74
2022/06/27 09:15:52;;;;;;;8.05;1.45;;;;;;;13.09;65.49;100168.22;5067180;28;20413;-79
2022/06/27 09:18:21;;;;;;;4.93;0.93;;;;;;;13.06;65.63;100173.88;5065148;28;20044;-80
2022/06/27 09:20:49;;;;;;;12.52;1.67;;;;;;;12.99;66.05;100171.91;5014132;28;20028;-80
2022/06/27 09:23:41;;;;;;;10.30;1.25;;;;;;;13.03;66.35;100175.03;5052126;28;20064;-80
2022/06/27 09:26:10;;;;;;;7.85;1.02;;;;;;;13.15;66.48;100165.72;5050772;28;20029;-80
2022/06/27 09:28:41;;;;;;;11.95;1.90;;;;;;;13.24;65.93;100169.19;5050756;28;20207;-81
2022/06/27 09:31:12;;;;;;;6.80;1.40;;;;;;;13.33;65.27;100166.53;5052620;28;20090;-80
2022/06/27 09:33:42;;;;;;;15.48;1.25;;;;;;;13.40;64.86;100167.50;5069064;28;20032;-80
2022/06/27 09:36:13;;;;;;;8.35;1.65;;;;;;;13.45;64.55;100167.00;5052155;28;20024;-80
2022/06/27 09:38:43;;;;;;;9.23;1.25;;;;;;;13.48;64.46;100158.69;5067806;28;20071;-81
2022/06/27 09:41:12;;;;;;;8.52;1.50;;;;;;;13.50;64.75;100156.69;5052411;28;20553;-80
2022/06/27 09:43:44;;;;;;;11.13;0.90;;;;;;;13.57;64.94;100157.69;5050486;28;20033;-80
2022/06/27 09:46:13;;;;;;;6.13;1.02;;;;;;;13.63;64.63;100154.34;5034082;28;20029;-81
2022/06/27 09:48:46;;;;;;;8.23;1.13;;;;;;;13.62;64.20;100152.69;5050959;28;20107;-80
2022/06/27 09:51:17;;;;;;;6.65;1.10;;;;;;;13.61;63.94;100152.88;5069126;28;20035;-81
2022/06/27 09:53:50;;;;;;;5.82;1.20;;;;;;;13.71;64.23;100152.69;5066189;28;20027;-81
2022/06/27 09:56:20;;;;;;;4.57;1.20;;;;;;;13.89;63.84;100153.25;5068123;28;20147;-81
2022/06/27 09:58:46;;;;;;;5.32;1.00;;;;;;;13.96;63.01;100148.06;5049504;28;20032;-81
2022/06/27 10:01:12;;;;;;;10.98;1.40;;;;;;;14.00;62.73;100148.53;5068747;28;20040;-80
2022/06/27 10:03:40;;;;;;;7.68;1.38;;;;;;;13.99;62.45;100147.72;5065941;28;20032;-80
2022/06/27 10:06:07;;;;;;;6.70;1.00;;;;;;;13.99;62.36;100152.19;5046503;28;20025;-81
2022/06/27 10:08:35;;;;;;;4.45;0.73;;;;;;;13.98;62.03;100153.22;5067369;28;20056;-80
2022/06/27 10:11:00;;;;;;;4.50;1.50;;;;;;;13.99;62.07;100152.19;5050051;28;20047;-81
2022/06/27 10:13:28;;;;;;;8.20;1.30;;;;;;;14.05;61.92;100148.84;5068106;28;20116;-80
2022/06/27 10:15:57;;;;;;;5.32;1.33;;;;;;;14.17;61.88;100151.13;5067081;28;20024;-81
2022/06/27 10:18:23;;;;;;;5.53;0.90;;;;;;;14.29;62.26;100151.53;5048117;28;20028;-80
2022/06/27 10:20:51;;;;;;;7.53;1.17;;;;;;;14.38;62.28;100151.31;5065815;28;20101;-80
2022/06/27 10:23:28;;;;;;;7.18;0.85;;;;;;;14.40;62.08;100145.81;5058425;28;20067;-80
2022/06/27 10:25:56;;;;;;;3.38;0.70;;;;;;;14.31;62.12;100138.91;5062520;28;20098;-80
2022/06/27 10:28:22;;;;;;;4.78;0.93;;;;;;;14.24;62.14;100139.59;5059727;28;20025;-80
2022/06/27 10:30:53;;;;;;;5.97;0.90;;;;;;;14.32;62.58;100137.88;5048577;28;20074;-74
2022/06/27 10:33:24;;;;;;;7.47;0.90;;;;;;;14.39;61.22;100141.50;5049024;28;20033;-75
2022/06/27 10:36:05;;;;;;;6.10;1.08;;;;;;;14.32;60.73;100148.50;5068103;28;20029;-81
2022/06/27 10:38:38;;;;;;;3.80;0.63;;;;;;;14.17;61.02;100136.00;5017355;28;20172;-81
2022/06/27 10:41:06;;;;;;;6.22;0.80;;;;;;;14.13;61.11;100138.19;5051876;28;20488;-81
2022/06/27 10:43:38;;;;;;;6.18;0.80;;;;;;;14.32;61.32;100130.75;5067555;28;20066;-81
2022/06/27 10:46:10;;;;;;;3.63;0.55;;;;;;;14.59;60.26;100135.69;5035274;28;20025;-81
2022/06/27 10:48:59;;;;;;;5.32;0.65;;;;;;;14.70;59.75;100126.47;5049416;28;20499;-81
2022/06/27 10:51:31;;;;;;;3.28;0.50;;;;;;;14.82;58.85;100134.88;5065133;28;20456;-80
2022/06/27 10:54:05;;;;;;;4.97;0.90;;;;;;;14.90;58.60;100126.81;5068883;28;20489;-81
2022/06/27 10:56:36;;;;;;;4.07;0.63;;;;;;;14.97;58.71;100133.06;5052848;28;20066;-80
2022/06/27 10:59:04;;;;;;;4.07;0.50;;;;;;;14.95;58.86;100129.78;5055255;28;20051;-80
2022/06/27 11:01:32;;;;;;;5.18;0.73;;;;;;;14.83;58.89;100133.84;5072289;28;20039;-81
2022/06/27 11:03:59;;;;;;;3.38;0.60;;;;;;;14.57;58.71;100133.22;5054784;28;20105;-81
2022/06/27 11:06:26;;;;;;;4.10;0.65;;;;;;;14.38;59.54;100147.84;5072582;28;20032;-80
2022/06/27 11:08:53;;;;;;;4.07;0.60;;;;;;;14.27;60.16;100147.22;5052782;28;20035;-80
2022/06/27 11:11:26;;;;;;;5.38;0.90;;;;;;;14.19;59.81;100141.16;5072354;28;20749;-80
2022/06/27 11:14:01;;;;;;;5.63;1.10;;;;;;;14.15;60.21;100148.63;5053004;28;20040;-80
2022/06/27 11:16:28;;;;;;;5.07;0.95;;;;;;;14.16;60.32;100152.13;5070912;28;20519;-74
2022/06/27 11:19:00;;;;;;;5.43;0.70;;;;;;;14.13;60.18;100134.69;5072997;28;20047;-74
2022/06/27 11:21:28;;;;;;;5.38;1.08;;;;;;;14.09;60.32;100150.16;5055540;28;20388;-80
2022/06/27 11:24:09;;;;;;;7.10;1.48;;;;;;;14.17;60.61;100146.63;5073665;28;20025;-80
2022/06/27 11:26:49;;;;;;;4.32;0.77;;;;;;;14.25;60.89;100149.22;5029147;28;20431;-80
2022/06/27 11:32:08;;;;;;;2.40;0.63;;;;;;;14.41;59.96;100146.66;5052209;28;20032;-79
2022/06/27 11:34:36;;;;;;;8.63;0.93;;;;;;;14.48;59.62;100150.22;5054626;28;20036;-80
2022/06/27 11:37:09;;;;;;;4.90;1.02;;;;;;;14.55;59.13;100148.53;5073055;28;20037;-80
2022/06/27 11:39:35;;;;;;;4.00;0.70;;;;;;;14.54;59.46;100151.38;5036911;28;20063;-80
2022/06/27 11:42:12;;;;;;;9.23;1.02;;;;;;;14.57;59.63;100156.34;5072471;28;20028;-80